createdAt,value
2023-01-04T00:01:01.206Z,17.50
2023-01-04T00:02:03.704Z,17.60
2023-01-04T00:03:06.552Z,17.60
2023-01-04T00:04:09.969Z,17.60
2023-01-04T00:05:12.381Z,17.60
2023-01-04T00:06:16.610Z,17.60
2023-01-04T00:07:19.010Z,17.60
2023-01-04T00:08:21.372Z,17.60
2023-01-04T00:09:23.747Z,17.60
2023-01-04T00:10:26.353Z,17.60
2023-01-04T00:11:28.866Z,17.60
2023-01-04T00:12:31.231Z,17.60
2023-01-04T00:13:34.428Z,17.60
2023-01-04T00:14:36.788Z,17.60
2023-01-04T00:15:39.171Z,17.60
2023-01-04T00:16:41.596Z,17.60
2023-01-04T00:17:44.099Z,17.60
2023-01-04T00:18:47.230Z,17.60
2023-01-04T00:19:49.566Z,17.60
2023-01-04T00:20:51.882Z,17.60
2023-01-04T00:21:54.303Z,17.60
2023-01-04T00:22:58.255Z,17.60
2023-01-04T00:24:01.788Z,17.60
2023-01-04T00:25:04.551Z,17.60
2023-01-04T00:26:11.590Z,17.60
2023-01-04T00:27:14.019Z,17.60
2023-01-04T00:28:16.316Z,17.60
2023-01-04T00:29:18.758Z,17.60
2023-01-04T00:30:21.022Z,17.70
2023-01-04T00:31:24.555Z,17.60
2023-01-04T00:32:26.929Z,17.70
2023-01-04T00:33:29.306Z,17.70
2023-01-04T00:34:31.606Z,17.70
2023-01-04T00:35:45.838Z,17.60
2023-01-04T00:36:49.007Z,17.60
2023-01-04T00:37:52.199Z,17.60
2023-01-04T00:39:08.231Z,17.60
2023-01-04T00:40:11.566Z,17.60
2023-01-04T00:41:57.433Z,17.60
2023-01-04T00:42:36.680Z,17.60
2023-01-04T00:43:39.361Z,17.60
2023-01-04T00:44:41.653Z,17.60
2023-01-04T00:45:44.236Z,17.60
2023-01-04T00:46:47.258Z,17.60
2023-01-04T00:47:49.983Z,17.60
2023-01-04T00:48:56.724Z,17.60
2023-01-04T00:50:03.751Z,17.60
2023-01-04T00:51:06.254Z,17.60
2023-01-04T00:52:08.742Z,17.60
2023-01-04T00:53:12.726Z,17.60
2023-01-04T00:54:16.133Z,17.60
2023-01-04T00:55:18.505Z,17.60
2023-01-04T00:56:21.157Z,17.60
2023-01-04T00:57:23.442Z,17.60
2023-01-04T00:58:25.876Z,17.60
2023-01-04T00:59:28.861Z,17.60
2023-01-04T01:00:31.497Z,17.60
2023-01-04T01:01:34.515Z,17.60
2023-01-04T01:02:37.161Z,17.60
2023-01-04T01:03:39.852Z,17.60
2023-01-04T01:04:42.282Z,17.60
2023-01-04T01:05:44.577Z,17.60
2023-01-04T01:06:47.475Z,17.60
2023-01-04T01:07:49.855Z,17.50
2023-01-04T01:08:52.953Z,17.60
2023-01-04T01:09:55.287Z,17.60
2023-01-04T01:11:04.279Z,17.60
2023-01-04T01:12:06.582Z,17.60
2023-01-04T01:13:08.862Z,17.50
2023-01-04T01:14:18.415Z,17.50
2023-01-04T01:15:20.709Z,17.50
2023-01-04T01:16:52.876Z,17.50
2023-01-04T01:17:47.704Z,17.50
2023-01-04T01:18:50.520Z,17.50
2023-01-04T01:19:52.960Z,17.50
2023-01-04T01:20:55.307Z,17.50
2023-01-04T01:21:58.228Z,17.50
2023-01-04T01:23:00.739Z,17.50
2023-01-04T01:24:03.449Z,17.50
2023-01-04T01:25:06.297Z,17.50
2023-01-04T01:26:11.982Z,17.50
2023-01-04T01:27:14.272Z,17.40
2023-01-04T01:28:16.615Z,17.40
2023-01-04T01:29:19.087Z,17.40
2023-01-04T01:30:21.416Z,17.40
2023-01-04T01:31:26.282Z,17.40
2023-01-04T01:32:28.686Z,17.40
2023-01-04T01:33:30.976Z,17.40
2023-01-04T01:34:33.370Z,17.40
2023-01-04T01:35:36.665Z,17.40
2023-01-04T01:36:38.968Z,17.40
2023-01-04T01:37:41.283Z,17.40
2023-01-04T01:38:44.067Z,17.40
2023-01-04T01:39:46.337Z,17.40
2023-01-04T01:40:48.602Z,17.40
2023-01-04T01:41:50.896Z,17.40
2023-01-04T01:42:53.285Z,17.40
2023-01-04T01:44:26.556Z,17.40
2023-01-04T01:45:31.913Z,17.40
2023-01-04T01:46:49.944Z,17.40
2023-01-04T01:47:52.456Z,17.40
2023-01-04T01:49:00.668Z,17.40
2023-01-04T01:50:04.232Z,17.30
2023-01-04T01:51:06.582Z,16.50
2023-01-04T01:52:14.966Z,16.20
2023-01-04T01:53:17.744Z,16.30
2023-01-04T01:54:26.761Z,16.40
2023-01-04T01:55:32.710Z,16.40
2023-01-04T01:56:38.835Z,16.40
2023-01-04T01:57:41.978Z,16.30
2023-01-04T01:58:49.523Z,16.40
2023-01-04T01:59:54.432Z,16.40
2023-01-04T02:00:57.147Z,16.40
2023-01-04T02:01:59.779Z,16.40
2023-01-04T02:03:14.800Z,16.40
2023-01-04T02:04:17.642Z,16.40
2023-01-04T02:05:21.043Z,16.30
2023-01-04T02:06:31.430Z,16.30
2023-01-04T02:07:35.855Z,16.30
2023-01-04T02:08:41.187Z,16.30
2023-01-04T02:09:44.532Z,16.30
2023-01-04T02:10:46.823Z,16.30
2023-01-04T02:11:49.215Z,16.20
2023-01-04T02:12:52.756Z,16.20
2023-01-04T02:14:16.582Z,16.20
2023-01-04T02:15:21.067Z,16.20
2023-01-04T02:16:36.512Z,15.80
2023-01-04T02:17:42.066Z,15.50
2023-01-04T02:18:57.954Z,15.70
2023-01-04T02:20:21.687Z,15.90
2023-01-04T02:21:41.882Z,16.10
2023-01-04T02:23:21.966Z,16.30
2023-01-04T02:25:05.230Z,16.40
2023-01-04T02:26:31.594Z,16.60
2023-01-04T02:27:50.212Z,16.60
2023-01-04T02:29:11.062Z,16.70
2023-01-04T02:30:31.836Z,16.70
2023-01-04T02:31:44.785Z,16.70
2023-01-04T02:33:11.901Z,16.80
2023-01-04T02:34:26.306Z,16.90
2023-01-04T02:35:31.087Z,17.00
2023-01-04T02:37:26.553Z,17.00
2023-01-04T02:38:40.150Z,17.00
2023-01-04T02:40:06.346Z,17.10
2023-01-04T02:41:23.311Z,17.00
2023-01-04T02:42:49.291Z,17.00
2023-01-04T02:44:26.715Z,16.40
2023-01-04T02:45:39.071Z,15.80
2023-01-04T02:46:51.614Z,16.30
2023-01-04T02:48:12.684Z,16.70
2023-01-04T02:49:33.819Z,17.00
2023-01-04T02:50:50.663Z,17.30
2023-01-04T02:51:52.962Z,17.50
2023-01-04T02:52:55.291Z,17.70
2023-01-04T02:54:00.587Z,17.90
2023-01-04T02:55:05.580Z,18.00
2023-01-04T02:56:08.045Z,18.20
2023-01-04T02:57:34.183Z,18.30
2023-01-04T02:58:56.955Z,18.40
2023-01-04T03:00:20.794Z,18.60
2023-01-04T03:01:41.695Z,18.70
2023-01-04T03:03:29.252Z,18.80
2023-01-04T03:05:06.962Z,18.90
2023-01-04T03:06:23.445Z,19.00
2023-01-04T03:07:39.380Z,19.10
2023-01-04T03:09:02.719Z,19.20
2023-01-04T03:10:36.319Z,19.30
2023-01-04T03:12:19.169Z,19.40
2023-01-04T03:13:45.709Z,19.50
2023-01-04T03:14:51.579Z,19.60
2023-01-04T03:16:03.761Z,19.60
2023-01-04T03:17:11.700Z,19.70
2023-01-04T03:18:20.472Z,19.70
2023-01-04T03:19:45.739Z,19.80
2023-01-04T03:20:52.447Z,19.80
2023-01-04T03:21:54.806Z,19.90
2023-01-04T03:23:22.323Z,19.90
2023-01-04T03:24:43.564Z,19.90
2023-01-04T03:26:54.086Z,20.00
2023-01-04T03:28:16.498Z,20.00
2023-01-04T03:29:47.003Z,20.00
2023-01-04T03:31:37.452Z,20.00
2023-01-04T03:33:06.069Z,20.00
2023-01-04T03:34:27.216Z,20.00
2023-01-04T03:35:39.919Z,20.10
2023-01-04T03:37:07.258Z,20.10
2023-01-04T03:38:35.618Z,20.00
2023-01-04T03:40:23.165Z,20.10
2023-01-04T03:41:59.347Z,20.10
2023-01-04T03:43:27.198Z,20.10
2023-01-04T03:45:09.443Z,20.00
2023-01-04T03:46:49.903Z,18.80
2023-01-04T03:48:28.960Z,17.90
2023-01-04T03:49:38.827Z,17.90
2023-01-04T03:50:47.610Z,18.20
2023-01-04T03:51:54.151Z,18.50
2023-01-04T03:52:59.147Z,18.70
2023-01-04T03:54:12.892Z,18.90
2023-01-04T03:55:16.525Z,19.10
2023-01-04T03:56:22.534Z,19.20
2023-01-04T03:57:25.803Z,19.40
2023-01-04T03:58:28.232Z,19.50
2023-01-04T03:59:30.911Z,19.60
2023-01-04T04:00:33.872Z,19.70
2023-01-04T04:01:37.406Z,19.80
2023-01-04T04:02:41.449Z,19.80
2023-01-04T04:04:02.144Z,20.00
2023-01-04T04:05:23.884Z,20.00
2023-01-04T04:06:44.730Z,20.10
2023-01-04T04:08:05.862Z,20.20
2023-01-04T04:09:08.416Z,20.20
2023-01-04T04:10:10.794Z,20.30
2023-01-04T04:11:31.374Z,20.20
2023-01-04T04:12:33.730Z,20.20
2023-01-04T04:13:36.008Z,20.30
2023-01-04T04:14:38.375Z,20.30
2023-01-04T04:15:40.751Z,20.30
2023-01-04T04:16:43.283Z,20.30
2023-01-04T04:17:45.611Z,20.30
2023-01-04T04:18:50.868Z,20.40
2023-01-04T04:19:53.149Z,20.40
2023-01-04T04:20:58.228Z,20.40
2023-01-04T04:22:00.510Z,20.40
2023-01-04T04:23:03.572Z,20.40
2023-01-04T04:24:06.364Z,20.40
2023-01-04T04:25:09.006Z,20.50
2023-01-04T04:26:11.601Z,20.50
2023-01-04T04:27:13.933Z,20.50
2023-01-04T04:28:16.259Z,20.50
2023-01-04T04:29:18.582Z,20.50
2023-01-04T04:30:21.122Z,20.50
2023-01-04T04:31:23.520Z,20.60
2023-01-04T04:32:25.913Z,20.60
2023-01-04T04:33:28.373Z,20.60
2023-01-04T04:34:30.741Z,20.60
2023-01-04T04:35:33.027Z,20.60
2023-01-04T04:36:35.351Z,20.60
2023-01-04T04:37:37.730Z,20.60
2023-01-04T04:38:40.306Z,20.60
2023-01-04T04:39:42.638Z,20.70
2023-01-04T04:41:04.464Z,20.70
2023-01-04T04:42:06.823Z,20.70
2023-01-04T04:43:09.573Z,20.60
2023-01-04T04:44:20.338Z,20.70
2023-01-04T04:45:22.662Z,20.70
2023-01-04T04:46:25.436Z,20.70
2023-01-04T04:47:27.715Z,20.70
2023-01-04T04:48:30.024Z,20.70
2023-01-04T04:49:32.606Z,20.70
2023-01-04T04:50:34.906Z,20.70
2023-01-04T04:51:37.966Z,20.70
2023-01-04T04:52:41.740Z,20.70
2023-01-04T04:53:44.076Z,20.80
2023-01-04T04:54:46.338Z,20.80
2023-01-04T04:55:51.816Z,20.80
2023-01-04T04:56:54.114Z,20.80
2023-01-04T04:57:56.540Z,20.80
2023-01-04T04:58:58.886Z,20.80
2023-01-04T05:00:01.223Z,20.80
2023-01-04T05:01:03.963Z,20.80
2023-01-04T05:02:06.537Z,20.90
2023-01-04T05:03:09.256Z,20.90
2023-01-04T05:04:16.382Z,20.80
2023-01-04T05:05:18.739Z,19.90
2023-01-04T05:06:21.427Z,19.20
2023-01-04T05:07:23.909Z,19.30
2023-01-04T05:08:26.450Z,19.60
2023-01-04T05:09:28.788Z,19.90
2023-01-04T05:10:31.199Z,20.00
2023-01-04T05:11:52.438Z,20.10
2023-01-04T05:13:00.749Z,20.20
2023-01-04T05:14:03.106Z,20.40
2023-01-04T05:15:05.799Z,20.40
2023-01-04T05:16:09.664Z,20.50
2023-01-04T05:17:12.193Z,20.50
2023-01-04T05:18:16.712Z,20.60
2023-01-04T05:19:19.256Z,20.60
2023-01-04T05:20:21.889Z,20.70
2023-01-04T05:21:24.211Z,20.70
2023-01-04T05:22:26.714Z,20.70
2023-01-04T05:23:29.083Z,20.70
2023-01-04T05:24:31.610Z,20.70
2023-01-04T05:25:34.317Z,20.70
2023-01-04T05:26:36.683Z,20.80
2023-01-04T05:27:39.020Z,20.80
2023-01-04T05:28:41.412Z,20.80
2023-01-04T05:30:02.913Z,20.90
2023-01-04T05:31:05.385Z,20.90
2023-01-04T05:32:08.004Z,20.90
2023-01-04T05:33:10.577Z,20.90
2023-01-04T05:34:17.053Z,21.00
2023-01-04T05:35:22.496Z,20.90
2023-01-04T05:36:26.221Z,20.80
2023-01-04T05:37:28.541Z,19.80
2023-01-04T05:38:31.051Z,19.40
2023-01-04T05:39:33.509Z,19.50
2023-01-04T05:40:35.902Z,19.70
2023-01-04T05:41:56.840Z,20.00
2023-01-04T05:42:59.353Z,20.10
2023-01-04T05:44:01.694Z,20.20
2023-01-04T05:45:04.778Z,20.30
2023-01-04T05:46:07.246Z,20.40
2023-01-04T05:47:14.841Z,20.50
2023-01-04T05:48:18.329Z,20.50
2023-01-04T05:49:20.656Z,20.60
2023-01-04T05:50:24.025Z,20.60
2023-01-04T05:51:26.325Z,20.70
2023-01-04T05:52:28.661Z,20.70
2023-01-04T05:53:30.977Z,20.80
2023-01-04T05:54:33.310Z,20.80
2023-01-04T05:55:35.926Z,20.80
2023-01-04T05:56:38.235Z,20.80
2023-01-04T05:57:40.556Z,20.80
2023-01-04T05:58:42.899Z,20.80
2023-01-04T05:59:45.282Z,20.80
2023-01-04T06:00:47.740Z,20.60
2023-01-04T06:01:50.194Z,20.50
2023-01-04T06:02:52.814Z,20.40
2023-01-04T06:03:55.605Z,20.30
2023-01-04T06:04:59.294Z,20.30
2023-01-04T06:06:02.040Z,20.20
2023-01-04T06:07:04.361Z,20.20
2023-01-04T06:08:06.845Z,20.40
2023-01-04T06:09:09.173Z,20.60
2023-01-04T06:10:13.186Z,20.60
2023-01-04T06:11:15.466Z,20.70
2023-01-04T06:12:17.775Z,20.80
2023-01-04T06:13:20.589Z,20.70
2023-01-04T06:14:22.902Z,20.70
2023-01-04T06:15:25.463Z,20.80
2023-01-04T06:16:27.897Z,20.80
2023-01-04T06:17:30.278Z,20.80
2023-01-04T06:18:32.599Z,20.80
2023-01-04T06:19:35.304Z,20.80
2023-01-04T06:20:37.559Z,20.80
2023-01-04T06:21:39.950Z,20.80
2023-01-04T06:22:42.983Z,20.90
2023-01-04T06:23:45.500Z,20.90
2023-01-04T06:24:47.868Z,20.90
2023-01-04T06:25:50.197Z,21.00
2023-01-04T06:26:53.243Z,20.90
2023-01-04T06:27:55.546Z,21.00
2023-01-04T06:28:57.866Z,21.00
2023-01-04T06:30:00.237Z,21.00
2023-01-04T06:31:06.924Z,21.00
2023-01-04T06:32:09.299Z,21.00
2023-01-04T06:33:11.637Z,21.00
2023-01-04T06:34:15.051Z,21.00
2023-01-04T06:35:17.413Z,21.00
2023-01-04T06:36:20.411Z,21.00
2023-01-04T06:37:22.790Z,21.00
2023-01-04T06:38:25.221Z,21.00
2023-01-04T06:39:27.634Z,21.00
2023-01-04T06:40:29.996Z,21.00
2023-01-04T06:41:32.474Z,21.00
2023-01-04T06:42:47.221Z,21.00
2023-01-04T06:43:49.657Z,21.00
2023-01-04T06:44:52.028Z,21.00
2023-01-04T06:45:54.523Z,21.00
2023-01-04T06:46:56.878Z,21.00
2023-01-04T06:47:59.933Z,21.10
2023-01-04T06:49:04.654Z,21.10
2023-01-04T06:50:07.329Z,20.80
2023-01-04T06:51:09.929Z,20.60
2023-01-04T06:52:12.678Z,20.60
2023-01-04T06:53:14.948Z,20.60
2023-01-04T06:54:17.380Z,20.60
2023-01-04T06:55:19.797Z,20.50
2023-01-04T06:56:22.147Z,20.40
2023-01-04T06:57:24.579Z,20.50
2023-01-04T06:58:27.069Z,20.70
2023-01-04T06:59:29.421Z,20.80
2023-01-04T07:03:14.717Z,20.90
2023-01-04T07:04:10.840Z,21.00
2023-01-04T07:05:13.304Z,21.10
2023-01-04T07:06:15.654Z,21.10
2023-01-04T07:07:17.977Z,21.20
2023-01-04T07:08:20.367Z,21.20
2023-01-04T07:09:22.756Z,21.20
2023-01-04T07:10:25.090Z,20.70
2023-01-04T07:11:27.359Z,19.20
2023-01-04T07:12:29.951Z,18.00
2023-01-04T07:13:32.356Z,17.20
2023-01-04T07:14:34.761Z,16.60
2023-01-04T07:15:40.400Z,16.10
2023-01-04T07:16:43.494Z,16.00
2023-01-04T07:17:50.332Z,16.60
2023-01-04T07:18:52.660Z,17.10
2023-01-04T07:19:55.067Z,17.40
2023-01-04T07:20:57.414Z,17.70
2023-01-04T07:21:59.758Z,17.90
2023-01-04T07:23:02.093Z,18.10
2023-01-04T07:24:04.471Z,18.20
2023-01-04T07:25:07.156Z,18.40
2023-01-04T07:26:09.523Z,18.50
2023-01-04T07:27:12.103Z,18.60
2023-01-04T07:28:34.410Z,18.80
2023-01-04T07:29:36.911Z,19.00
2023-01-04T07:30:39.270Z,19.30
2023-01-04T07:31:43.187Z,19.50
2023-01-04T07:32:45.562Z,19.70
2023-01-04T07:33:50.861Z,19.70
2023-01-04T07:34:53.244Z,19.80
2023-01-04T07:35:55.559Z,19.90
2023-01-04T07:36:58.115Z,20.00
2023-01-04T07:38:00.477Z,20.10
2023-01-04T07:39:02.949Z,20.10
2023-01-04T07:40:06.315Z,20.20
2023-01-04T07:41:08.602Z,20.20
2023-01-04T07:42:11.605Z,20.30
2023-01-04T07:43:14.147Z,20.40
2023-01-04T07:44:18.071Z,20.40
2023-01-04T07:45:20.478Z,20.50
2023-01-04T07:46:22.988Z,20.50
2023-01-04T07:47:27.278Z,20.50
2023-01-04T07:48:29.781Z,20.60
2023-01-04T07:49:32.585Z,20.70
2023-01-04T07:50:34.967Z,20.70
2023-01-04T07:51:37.347Z,20.80
2023-01-04T07:52:39.688Z,20.80
2023-01-04T07:53:41.993Z,20.70
2023-01-04T07:54:44.328Z,20.60
2023-01-04T07:55:46.731Z,20.50
2023-01-04T07:56:49.052Z,20.30
2023-01-04T07:57:54.158Z,20.30
2023-01-04T07:58:57.605Z,20.20
2023-01-04T07:59:59.973Z,20.10
2023-01-04T08:01:09.985Z,20.10
2023-01-04T08:02:13.144Z,20.30
2023-01-04T08:03:15.547Z,20.40
2023-01-04T08:04:18.421Z,20.40
2023-01-04T08:05:21.080Z,20.50
2023-01-04T08:06:23.515Z,20.60
2023-01-04T08:07:25.827Z,20.70
2023-01-04T08:08:28.082Z,20.70
2023-01-04T08:09:30.622Z,20.70
2023-01-04T08:10:33.109Z,20.70
2023-01-04T08:11:35.537Z,20.70
2023-01-04T08:12:37.875Z,20.70
2023-01-04T08:13:41.249Z,20.70
2023-01-04T08:14:43.540Z,20.80
2023-01-04T08:15:53.212Z,20.80
2023-01-04T08:16:55.521Z,20.80
2023-01-04T08:17:57.837Z,20.80
2023-01-04T08:19:04.227Z,20.80
2023-01-04T08:20:07.441Z,20.00
2023-01-04T08:21:10.494Z,19.20
2023-01-04T08:22:14.131Z,18.80
2023-01-04T08:23:16.799Z,18.40
2023-01-04T08:24:20.059Z,18.00
2023-01-04T08:25:22.369Z,17.70
2023-01-04T08:26:25.037Z,17.50
2023-01-04T08:27:27.339Z,17.40
2023-01-04T08:28:30.238Z,17.40
2023-01-04T08:29:35.028Z,17.60
2023-01-04T08:30:37.795Z,18.00
2023-01-04T08:31:40.915Z,18.40
2023-01-04T08:32:43.340Z,19.50
2023-01-04T08:33:46.228Z,19.70
2023-01-04T08:34:48.527Z,19.80
2023-01-04T08:35:50.972Z,20.00
2023-01-04T08:36:53.812Z,20.10
2023-01-04T08:38:13.143Z,20.30
2023-01-04T08:39:18.748Z,20.40
2023-01-04T08:40:21.265Z,20.50
2023-01-04T08:41:55.938Z,20.50
2023-01-04T08:42:46.153Z,20.60
2023-01-04T08:43:48.529Z,20.60
2023-01-04T08:44:54.222Z,20.60
2023-01-04T08:46:01.584Z,20.60
2023-01-04T08:47:04.268Z,20.60
2023-01-04T08:48:06.740Z,20.70
2023-01-04T08:49:09.348Z,20.80
2023-01-04T08:50:11.710Z,20.90
2023-01-04T08:51:16.136Z,20.90
2023-01-04T08:52:18.683Z,21.00
2023-01-04T08:53:21.021Z,21.00
2023-01-04T08:54:23.321Z,21.00
2023-01-04T08:55:25.763Z,21.10
2023-01-04T08:56:28.275Z,21.00
2023-01-04T08:57:30.651Z,20.90
2023-01-04T08:58:33.257Z,20.90
2023-01-04T08:59:37.603Z,20.90
2023-01-04T09:00:40.246Z,20.90
2023-01-04T09:01:42.828Z,20.90
2023-01-04T09:02:45.413Z,20.90
2023-01-04T09:03:47.901Z,21.00
2023-01-04T09:04:51.907Z,21.00
2023-01-04T09:05:54.820Z,20.90
2023-01-04T09:06:57.316Z,20.70
2023-01-04T09:08:00.402Z,20.50
2023-01-04T09:09:02.753Z,20.40
2023-01-04T09:10:05.500Z,20.30
2023-01-04T09:11:11.221Z,20.20
2023-01-04T09:12:13.542Z,20.30
2023-01-04T09:13:15.924Z,20.40
2023-01-04T09:14:18.205Z,20.60
2023-01-04T09:15:20.699Z,20.70
2023-01-04T09:16:23.963Z,20.70
2023-01-04T09:17:26.679Z,20.80
2023-01-04T09:18:32.617Z,20.80
2023-01-04T09:19:35.518Z,20.90
2023-01-04T09:20:38.137Z,20.80
2023-01-04T09:21:41.438Z,20.90
2023-01-04T09:22:43.873Z,20.90
2023-01-04T09:23:46.829Z,20.90
2023-01-04T09:24:49.161Z,20.90
2023-01-04T09:25:51.477Z,21.00
2023-01-04T09:26:53.819Z,21.00
2023-01-04T09:27:57.613Z,21.00
2023-01-04T09:28:59.934Z,21.00
2023-01-04T09:30:02.681Z,21.10
2023-01-04T09:31:07.004Z,21.10
2023-01-04T09:32:16.085Z,21.10
2023-01-04T09:33:18.996Z,21.10
2023-01-04T09:34:21.346Z,21.10
2023-01-04T09:35:23.821Z,21.10
2023-01-04T09:36:26.655Z,21.10
2023-01-04T09:37:29.079Z,21.10
2023-01-04T09:38:33.596Z,21.10
2023-01-04T09:39:38.443Z,21.10
2023-01-04T09:41:01.537Z,21.10
2023-01-04T09:42:20.653Z,21.10
2023-01-04T09:43:24.490Z,21.10
2023-01-04T09:46:38.474Z,21.10
2023-01-04T09:47:53.761Z,21.20
2023-01-04T09:49:17.842Z,21.10
2023-01-04T09:50:32.035Z,21.20
2023-01-04T09:51:37.632Z,21.30
2023-01-04T09:52:46.002Z,21.30
2023-01-04T09:53:57.781Z,21.30
2023-01-04T09:55:36.389Z,21.30
2023-01-04T09:56:33.969Z,21.30
2023-01-04T09:57:53.751Z,21.40
2023-01-04T09:58:58.015Z,21.40
2023-01-04T10:00:17.025Z,21.50
2023-01-04T10:01:26.060Z,21.50
2023-01-04T10:02:42.838Z,21.50
2023-01-04T10:04:05.058Z,21.50
2023-01-04T10:05:14.763Z,21.60
2023-01-04T10:06:17.137Z,21.60
2023-01-04T10:07:31.885Z,21.60
2023-01-04T10:08:34.777Z,21.60
2023-01-04T10:09:37.180Z,21.60
2023-01-04T10:10:57.601Z,21.60
2023-01-04T10:12:15.530Z,21.60
2023-01-04T10:13:51.649Z,21.60
2023-01-04T10:14:59.718Z,21.70
2023-01-04T10:16:44.153Z,21.60
2023-01-04T10:22:50.024Z,21.50
2023-01-04T10:24:02.463Z,21.40
2023-01-04T10:25:36.698Z,21.20
2023-01-04T10:26:49.024Z,21.10
2023-01-04T10:28:18.518Z,21.20
2023-01-04T10:30:21.169Z,21.30
2023-01-04T10:31:51.361Z,21.50
2023-01-04T10:33:01.798Z,21.50
2023-01-04T10:34:19.026Z,21.60
2023-01-04T10:35:25.351Z,21.50
2023-01-04T10:36:31.603Z,21.50
2023-01-04T10:37:37.449Z,21.50
2023-01-04T10:38:40.872Z,21.50
2023-01-04T10:39:44.868Z,21.60
2023-01-04T10:40:48.706Z,21.60
2023-01-04T10:41:56.679Z,21.60
2023-01-04T10:43:23.356Z,21.60
2023-01-04T10:44:37.211Z,21.60
2023-01-04T10:46:02.250Z,21.50
2023-01-04T10:47:27.061Z,21.40
2023-01-04T10:48:48.900Z,21.20
2023-01-04T10:49:58.580Z,21.20
2023-01-04T10:51:09.914Z,21.10
2023-01-04T10:52:22.556Z,21.30
2023-01-04T10:53:32.816Z,21.30
2023-01-04T10:55:03.015Z,21.40
2023-01-04T10:56:27.583Z,21.50
2023-01-04T10:57:42.004Z,21.60
2023-01-04T10:58:52.390Z,21.60
2023-01-04T11:00:11.137Z,21.60
2023-01-04T11:01:23.763Z,21.60
2023-01-04T11:02:31.524Z,21.60
2023-01-04T11:03:55.108Z,21.70
2023-01-04T11:05:13.320Z,21.70
2023-01-04T11:06:20.224Z,21.60
2023-01-04T11:07:28.587Z,21.70
2023-01-04T11:08:55.417Z,21.70
2023-01-04T11:10:10.562Z,21.80
2023-01-04T11:11:20.090Z,21.80
2023-01-04T11:12:23.777Z,21.80
2023-01-04T11:13:26.579Z,21.80
2023-01-04T11:14:35.160Z,21.80
2023-01-04T11:15:42.607Z,21.80
2023-01-04T11:16:48.460Z,21.70
2023-01-04T11:17:51.916Z,21.60
2023-01-04T11:18:54.435Z,21.60
2023-01-04T11:19:56.846Z,21.50
2023-01-04T11:20:59.615Z,21.40
2023-01-04T11:22:13.214Z,21.30
2023-01-04T11:23:20.408Z,21.20
2023-01-04T11:24:31.881Z,21.20
2023-01-04T11:26:21.729Z,21.20
2023-01-04T11:27:29.473Z,21.30
2023-01-04T11:29:00.366Z,21.40
2023-01-04T11:30:19.951Z,21.40
2023-01-04T11:31:49.994Z,21.50
2023-01-04T11:33:02.980Z,21.60
2023-01-04T11:34:06.777Z,21.60
2023-01-04T11:35:09.142Z,21.70
2023-01-04T11:36:31.391Z,21.70
2023-01-04T11:37:39.223Z,21.60
2023-01-04T11:38:55.615Z,21.60
2023-01-04T11:40:16.487Z,21.60
2023-01-04T11:41:19.583Z,21.60
2023-01-04T11:42:22.246Z,21.60
2023-01-04T11:43:26.693Z,21.70
2023-01-04T11:44:29.238Z,21.70
2023-01-04T11:45:31.570Z,21.70
2023-01-04T11:46:34.888Z,21.70
2023-01-04T11:47:48.576Z,21.80
2023-01-04T11:48:51.797Z,21.70
2023-01-04T11:49:55.222Z,21.70
2023-01-04T11:50:57.786Z,21.70
2023-01-04T11:52:00.098Z,21.70
2023-01-04T11:53:02.656Z,21.70
2023-01-04T11:54:13.648Z,21.40
2023-01-04T11:55:29.583Z,21.40
2023-01-04T11:56:34.245Z,21.30
2023-01-04T11:57:36.571Z,21.30
2023-01-04T11:58:40.127Z,21.40
2023-01-04T11:59:42.437Z,21.50
2023-01-04T12:00:52.239Z,21.60
2023-01-04T12:03:47.491Z,21.80
2023-01-04T12:04:52.613Z,21.80
2023-01-04T12:05:55.547Z,21.80
2023-01-04T12:07:13.915Z,21.80
2023-01-04T12:08:33.949Z,21.80
2023-01-04T12:09:36.608Z,21.80
2023-01-04T12:10:39.047Z,21.80
2023-01-04T12:11:46.434Z,21.80
2023-01-04T12:12:48.891Z,21.80
2023-01-04T12:13:51.538Z,21.80
2023-01-04T12:14:54.475Z,21.50
2023-01-04T12:16:18.261Z,21.30
2023-01-04T12:17:50.994Z,21.20
2023-01-04T12:18:53.987Z,21.20
2023-01-04T12:19:57.958Z,21.40
2023-01-04T12:21:02.267Z,21.60
2023-01-04T12:22:11.387Z,21.60
2023-01-04T12:23:14.292Z,21.70
2023-01-04T12:24:19.767Z,21.80
2023-01-04T12:25:51.176Z,21.80
2023-01-04T12:26:54.374Z,21.80
2023-01-04T12:27:57.097Z,21.80
2023-01-04T12:29:24.277Z,21.80
2023-01-04T12:30:46.205Z,21.80
2023-01-04T12:31:51.204Z,21.90
2023-01-04T12:32:53.741Z,21.80
2023-01-04T12:34:17.086Z,21.80
2023-01-04T12:35:56.905Z,21.80
2023-01-04T12:37:05.574Z,21.80
2023-01-04T12:38:10.526Z,21.90
2023-01-04T12:39:13.527Z,21.80
2023-01-04T12:40:46.713Z,21.80
2023-01-04T12:42:01.319Z,21.70
2023-01-04T12:43:15.717Z,21.70
2023-01-04T12:44:36.863Z,21.40
2023-01-04T12:45:39.469Z,21.20
2023-01-04T12:47:00.956Z,21.20
2023-01-04T12:48:47.923Z,21.20
2023-01-04T12:49:57.881Z,21.40
2023-01-04T12:51:33.340Z,21.50
2023-01-04T12:53:10.726Z,21.60
2023-01-04T12:54:31.682Z,21.60
2023-01-04T12:55:43.748Z,21.70
2023-01-04T12:57:21.721Z,21.70
2023-01-04T12:58:58.169Z,21.70
2023-01-04T13:00:14.108Z,21.80
2023-01-04T13:01:25.732Z,21.90
2023-01-04T13:02:35.467Z,21.90
2023-01-04T13:03:48.350Z,21.80
2023-01-04T13:05:16.885Z,21.80
2023-01-04T13:06:20.596Z,21.70
2023-01-04T13:07:30.322Z,21.60
2023-01-04T13:08:40.186Z,21.70
2023-01-04T13:10:08.560Z,21.80
2023-01-04T13:11:45.926Z,21.80
2023-01-04T13:12:54.696Z,21.80
2023-01-04T13:14:20.681Z,21.80
2023-01-04T13:15:42.848Z,21.80
2023-01-04T13:16:57.735Z,21.90
2023-01-04T13:18:00.184Z,21.90
2023-01-04T13:19:09.613Z,21.90
2023-01-04T13:20:18.899Z,21.90
2023-01-04T13:21:26.591Z,22.00
2023-01-04T13:22:30.438Z,22.00
2023-01-04T13:23:32.950Z,21.90
2023-01-04T13:24:35.553Z,21.90
2023-01-04T13:25:37.905Z,22.00
2023-01-04T13:26:48.194Z,21.90
2023-01-04T13:27:57.624Z,21.90
2023-01-04T13:29:28.650Z,21.80
2023-01-04T13:30:39.328Z,21.80
2023-01-04T13:31:50.108Z,21.80
2023-01-04T13:33:24.853Z,21.90
2023-01-04T13:34:21.205Z,21.90
2023-01-04T13:35:23.744Z,22.00
2023-01-04T13:36:26.134Z,22.00
2023-01-04T13:37:42.221Z,22.00
2023-01-04T13:38:44.791Z,22.00
2023-01-04T13:39:52.453Z,22.00
2023-01-04T13:40:55.119Z,21.90
2023-01-04T13:41:58.462Z,21.90
2023-01-04T13:43:15.839Z,21.80
2023-01-04T13:45:09.370Z,21.80
2023-01-04T13:46:11.148Z,21.80
2023-01-04T13:47:13.491Z,21.60
2023-01-04T13:48:19.250Z,21.50
2023-01-04T13:49:23.072Z,21.50
2023-01-04T13:50:47.019Z,21.60
2023-01-04T13:51:49.422Z,21.70
2023-01-04T13:53:05.755Z,21.80
2023-01-04T13:54:23.531Z,21.90
2023-01-04T13:55:34.757Z,22.00
2023-01-04T13:56:37.112Z,21.90
2023-01-04T13:57:39.440Z,21.90
2023-01-04T13:58:43.771Z,21.90
2023-01-04T13:59:47.834Z,21.90
2023-01-04T14:00:55.978Z,22.00
2023-01-04T14:01:58.517Z,22.00
2023-01-04T14:03:27.043Z,22.00
2023-01-04T14:04:31.243Z,22.00
2023-01-04T14:05:34.673Z,22.00
2023-01-04T14:06:41.486Z,22.00
2023-01-04T14:07:44.693Z,22.00
2023-01-04T14:08:55.388Z,22.00
2023-01-04T14:10:00.112Z,22.00
2023-01-04T14:11:10.026Z,22.10
2023-01-04T14:12:18.842Z,22.10
2023-01-04T14:13:21.259Z,22.10
2023-01-04T14:14:23.611Z,22.10
2023-01-04T14:15:26.170Z,22.00
2023-01-04T14:16:28.521Z,22.00
2023-01-04T14:17:43.052Z,22.00
2023-01-04T14:18:48.628Z,22.00
2023-01-04T14:19:57.809Z,22.00
2023-01-04T14:21:00.269Z,22.10
2023-01-04T14:22:18.007Z,22.10
2023-01-04T14:23:35.386Z,22.10
2023-01-04T14:26:00.098Z,22.10
2023-01-04T14:27:34.426Z,22.10
2023-01-04T14:28:41.612Z,22.00
2023-01-04T14:29:47.266Z,22.00
2023-01-04T14:30:54.027Z,22.00
2023-01-04T14:31:56.606Z,22.10
2023-01-04T14:32:59.983Z,22.10
2023-01-04T14:34:06.037Z,22.10
2023-01-04T14:35:14.309Z,22.10
2023-01-04T14:36:23.040Z,22.10
2023-01-04T14:37:25.526Z,22.20
2023-01-04T14:38:28.353Z,22.10
2023-01-04T14:39:33.911Z,22.10
2023-01-04T14:40:38.400Z,22.00
2023-01-04T14:41:54.433Z,21.80
2023-01-04T14:42:57.002Z,21.60
2023-01-04T14:44:25.226Z,21.50
2023-01-04T14:45:27.657Z,21.30
2023-01-04T14:46:32.111Z,21.40
2023-01-04T14:47:34.521Z,21.50
2023-01-04T14:48:37.132Z,21.60
2023-01-04T14:49:39.496Z,21.60
2023-01-04T14:50:41.844Z,21.50
2023-01-04T14:51:51.748Z,21.50
2023-01-04T14:52:55.084Z,21.60